Terminal Aerodrome Forecast
Issued by NWS

Home | Current Version | Previous Version | Text Only | Print | Product List | Glossary On
Versions: 1 2 3 4 5 6 7 8 9 10 11 12 13 14 15 16 17 18 19 20 21 22 23 24 25 26 27 28 29 30 31 32 33 34 35 36 37 38 39 40 41 42 43 44 45 46
000
FTUS41 KRNK 301010 AAC
TAFBCB
TAF AMD
KBCB 301010Z 3010/3106 00000KT 1/2SM FG OVC002
      TEMPO 3010/3012 2SM BR SCT001 SCT040
     FM301300 19004KT P6SM SCT040
     FM301700 19006KT P6SM SCT060
     FM310000 18003KT P6SM SCT120=

USA.gov is the U.S. government's official web portal to all federal, state and local government web resources and services.